Terminal Aerodrome Forecast
Issued by NWS

Home | Current Version | Previous Version | Text Only | Print | Product List | Glossary On
Versions: 1 2 3 4 5 6 7 8 9 10 11 12 13 14 15 16 17 18 19
828
FTUS43 KDLH 122042 AAA
TAFHIB
TAF AMD
KHIB 122042Z 1221/1318 32018KT P6SM FEW018
     FM130000 32010KT P6SM SCT020
     FM131000 31007KT P6SM SCT020=

USA.gov is the U.S. government's official web portal to all federal, state and local government web resources and services.